sensor_id;sensor_type;location;lat;lon;timestamp;temperature;humidity
16881;DHT22;8557;52.068;5.198;2023-03-01T00:02:22;1.00;99.90
16881;DHT22;8557;52.068;5.198;2023-03-01T00:04:49;1.10;99.90
16881;DHT22;8557;52.068;5.198;2023-03-01T00:07:15;1.00;99.90
16881;DHT22;8557;52.068;5.198;2023-03-01T00:09:42;1.00;99.90
16881;DHT22;8557;52.068;5.198;2023-03-01T00:12:12;1.00;99.90
16881;DHT22;8557;52.068;5.198;2023-03-01T00:14:39;0.90;99.90
16881;DHT22;8557;52.068;5.198;2023-03-01T00:17:06;0.90;99.90
16881;DHT22;8557;52.068;5.198;2023-03-01T00:19:33;0.90;99.90
16881;DHT22;8557;52.068;5.198;2023-03-01T00:22:00;0.90;99.90
16881;DHT22;8557;52.068;5.198;2023-03-01T00:24:27;0.80;99.90
16881;DHT22;8557;52.068;5.198;2023-03-01T00:26:54;0.80;99.90
16881;DHT22;8557;52.068;5.198;2023-03-01T00:29:23;0.80;99.90
16881;DHT22;8557;52.068;5.198;2023-03-01T00:31:50;0.80;99.90
16881;DHT22;8557;52.068;5.198;2023-03-01T00:34:17;0.80;99.90
16881;DHT22;8557;52.068;5.198;2023-03-01T00:36:44;0.80;99.90
16881;DHT22;8557;52.068;5.198;2023-03-01T00:39:14;0.80;99.90
16881;DHT22;8557;52.068;5.198;2023-03-01T00:41:41;0.70;99.90
16881;DHT22;8557;52.068;5.198;2023-03-01T00:44:08;0.70;99.90
16881;DHT22;8557;52.068;5.198;2023-03-01T00:46:37;0.70;99.90
16881;DHT22;8557;52.068;5.198;2023-03-01T00:49:04;0.70;99.90
16881;DHT22;8557;52.068;5.198;2023-03-01T00:51:31;0.70;99.90
16881;DHT22;8557;52.068;5.198;2023-03-01T00:54:00;0.70;99.90
16881;DHT22;8557;52.068;5.198;2023-03-01T00:56:28;0.70;99.90
16881;DHT22;8557;52.068;5.198;2023-03-01T00:58:55;0.60;99.90
16881;DHT22;8557;52.068;5.198;2023-03-01T01:01:23;0.60;99.90
16881;DHT22;8557;52.068;5.198;2023-03-01T01:03:55;0.60;99.90
16881;DHT22;8557;52.068;5.198;2023-03-01T01:06:24;0.60;99.90
16881;DHT22;8557;52.068;5.198;2023-03-01T01:08:52;0.60;99.90
16881;DHT22;8557;52.068;5.198;2023-03-01T01:11:19;0.60;99.90
16881;DHT22;8557;52.068;5.198;2023-03-01T01:13:47;0.60;99.90
16881;DHT22;8557;52.068;5.198;2023-03-01T01:16:16;0.60;99.90
16881;DHT22;8557;52.068;5.198;2023-03-01T01:18:44;0.60;99.90
16881;DHT22;8557;52.068;5.198;2023-03-01T01:21:14;0.60;99.90
16881;DHT22;8557;52.068;5.198;2023-03-01T01:23:42;0.60;99.90
16881;DHT22;8557;52.068;5.198;2023-03-01T01:26:13;0.60;99.90
16881;DHT22;8557;52.068;5.198;2023-03-01T01:28:40;0.60;99.90
16881;DHT22;8557;52.068;5.198;2023-03-01T01:31:07;0.60;99.90
16881;DHT22;8557;52.068;5.198;2023-03-01T01:33:35;0.60;99.90
16881;DHT22;8557;52.068;5.198;2023-03-01T01:36:03;0.50;99.90
16881;DHT22;8557;52.068;5.198;2023-03-01T01:38:32;0.50;99.90
16881;DHT22;8557;52.068;5.198;2023-03-01T01:40:59;0.50;99.90
16881;DHT22;8557;52.068;5.198;2023-03-01T01:43:28;0.40;99.90
16881;DHT22;8557;52.068;5.198;2023-03-01T01:45:56;0.40;99.90
16881;DHT22;8557;52.068;5.198;2023-03-01T01:48:28;0.40;99.90
16881;DHT22;8557;52.068;5.198;2023-03-01T01:51:10;0.40;99.90
16881;DHT22;8557;52.068;5.198;2023-03-01T01:53:40;0.30;99.90
16881;DHT22;8557;52.068;5.198;2023-03-01T01:56:12;0.30;99.90
16881;DHT22;8557;52.068;5.198;2023-03-01T01:58:40;0.30;99.90
16881;DHT22;8557;52.068;5.198;2023-03-01T02:01:08;0.30;99.90
16881;DHT22;8557;52.068;5.198;2023-03-01T02:03:37;0.30;99.90
16881;DHT22;8557;52.068;5.198;2023-03-01T02:06:12;0.30;99.90
16881;DHT22;8557;52.068;5.198;2023-03-01T02:08:42;0.30;99.90
16881;DHT22;8557;52.068;5.198;2023-03-01T02:11:10;0.30;99.90
16881;DHT22;8557;52.068;5.198;2023-03-01T02:13:40;0.30;99.90
16881;DHT22;8557;52.068;5.198;2023-03-01T02:16:10;0.20;99.90
16881;DHT22;8557;52.068;5.198;2023-03-01T02:18:38;0.20;99.90
16881;DHT22;8557;52.068;5.198;2023-03-01T02:21:14;0.20;99.90
16881;DHT22;8557;52.068;5.198;2023-03-01T02:23:45;0.10;99.90
16881;DHT22;8557;52.068;5.198;2023-03-01T02:26:18;0.10;99.90
16881;DHT22;8557;52.068;5.198;2023-03-01T02:28:48;0.00;99.90
16881;DHT22;8557;52.068;5.198;2023-03-01T02:31:18;0.00;99.90
16881;DHT22;8557;52.068;5.198;2023-03-01T02:34:04;0.00;99.90
16881;DHT22;8557;52.068;5.198;2023-03-01T02:36:35;0.00;99.90
16881;DHT22;8557;52.068;5.198;2023-03-01T02:39:05;0.00;99.90
16881;DHT22;8557;52.068;5.198;2023-03-01T02:41:36;0.00;99.90
16881;DHT22;8557;52.068;5.198;2023-03-01T02:44:05;0.00;99.90
16881;DHT22;8557;52.068;5.198;2023-03-01T02:46:32;0.10;99.90
16881;DHT22;8557;52.068;5.198;2023-03-01T02:48:59;0.00;99.90
16881;DHT22;8557;52.068;5.198;2023-03-01T02:52:07;0.00;99.90
16881;DHT22;8557;52.068;5.198;2023-03-01T02:54:40;0.00;99.90
16881;DHT22;8557;52.068;5.198;2023-03-01T02:57:08;0.00;99.90
16881;DHT22;8557;52.068;5.198;2023-03-01T02:59:37;0.00;99.90
16881;DHT22;8557;52.068;5.198;2023-03-01T03:02:06;-0.10;99.90
16881;DHT22;8557;52.068;5.198;2023-03-01T03:04:33;-0.10;99.90
16881;DHT22;8557;52.068;5.198;2023-03-01T03:07:00;-0.10;99.90
16881;DHT22;8557;52.068;5.198;2023-03-01T03:09:27;-0.10;99.90
16881;DHT22;8557;52.068;5.198;2023-03-01T03:11:54;-0.10;99.90
16881;DHT22;8557;52.068;5.198;2023-03-01T03:14:21;-0.10;99.90
16881;DHT22;8557;52.068;5.198;2023-03-01T03:16:50;-0.10;99.90
16881;DHT22;8557;52.068;5.198;2023-03-01T03:19:18;-0.10;99.90
16881;DHT22;8557;52.068;5.198;2023-03-01T03:21:45;-0.10;99.90
16881;DHT22;8557;52.068;5.198;2023-03-01T03:24:12;-0.10;99.90
16881;DHT22;8557;52.068;5.198;2023-03-01T03:26:39;-0.10;99.90
16881;DHT22;8557;52.068;5.198;2023-03-01T03:29:06;-0.10;99.90
16881;DHT22;8557;52.068;5.198;2023-03-01T03:31:33;-0.10;99.90
16881;DHT22;8557;52.068;5.198;2023-03-01T03:34:02;-0.20;99.90
16881;DHT22;8557;52.068;5.198;2023-03-01T03:36:29;-0.20;99.90
16881;DHT22;8557;52.068;5.198;2023-03-01T03:38:55;-0.20;99.90
16881;DHT22;8557;52.068;5.198;2023-03-01T03:41:22;-0.20;99.90
16881;DHT22;8557;52.068;5.198;2023-03-01T03:43:49;-0.20;99.90
16881;DHT22;8557;52.068;5.198;2023-03-01T03:46:16;-0.20;99.90
16881;DHT22;8557;52.068;5.198;2023-03-01T03:48:44;-0.30;99.90
16881;DHT22;8557;52.068;5.198;2023-03-01T03:51:14;-0.30;99.90
16881;DHT22;8557;52.068;5.198;2023-03-01T03:53:42;-0.30;99.90
16881;DHT22;8557;52.068;5.198;2023-03-01T03:56:10;-0.30;99.90
16881;DHT22;8557;52.068;5.198;2023-03-01T03:58:37;-0.30;99.90
16881;DHT22;8557;52.068;5.198;2023-03-01T04:01:04;-0.30;99.90
16881;DHT22;8557;52.068;5.198;2023-03-01T04:03:32;-0.40;99.90
16881;DHT22;8557;52.068;5.198;2023-03-01T04:06:01;-0.40;99.90
16881;DHT22;8557;52.068;5.198;2023-03-01T04:08:31;-0.40;99.90
16881;DHT22;8557;52.068;5.198;2023-03-01T04:11:00;-0.50;99.90
16881;DHT22;8557;52.068;5.198;2023-03-01T04:13:48;-0.50;99.90
16881;DHT22;8557;52.068;5.198;2023-03-01T04:16:15;-0.50;99.90
16881;DHT22;8557;52.068;5.198;2023-03-01T04:18:43;-0.50;99.90
16881;DHT22;8557;52.068;5.198;2023-03-01T04:21:10;-0.50;99.90
16881;DHT22;8557;52.068;5.198;2023-03-01T04:23:39;-0.60;99.90
16881;DHT22;8557;52.068;5.198;2023-03-01T04:26:07;-0.50;99.90
16881;DHT22;8557;52.068;5.198;2023-03-01T04:28:36;-0.50;99.90
16881;DHT22;8557;52.068;5.198;2023-03-01T04:31:05;-0.60;99.90
16881;DHT22;8557;52.068;5.198;2023-03-01T04:33:39;-0.60;99.90
16881;DHT22;8557;52.068;5.198;2023-03-01T04:38:35;-0.60;99.90
16881;DHT22;8557;52.068;5.198;2023-03-01T04:41:04;-0.60;99.90
16881;DHT22;8557;52.068;5.198;2023-03-01T04:43:31;-0.60;99.90
16881;DHT22;8557;52.068;5.198;2023-03-01T04:46:03;-0.60;99.90
16881;DHT22;8557;52.068;5.198;2023-03-01T04:48:31;-0.60;99.90
16881;DHT22;8557;52.068;5.198;2023-03-01T04:50:59;-0.60;99.90
16881;DHT22;8557;52.068;5.198;2023-03-01T04:53:26;-0.70;99.90
16881;DHT22;8557;52.068;5.198;2023-03-01T04:55:54;-0.80;99.90
16881;DHT22;8557;52.068;5.198;2023-03-01T04:58:22;-0.80;99.90
16881;DHT22;8557;52.068;5.198;2023-03-01T05:00:49;-0.80;99.90
16881;DHT22;8557;52.068;5.198;2023-03-01T05:03:16;-0.80;99.90
16881;DHT22;8557;52.068;5.198;2023-03-01T05:05:44;-0.70;99.90
16881;DHT22;8557;52.068;5.198;2023-03-01T05:08:12;-0.80;99.90
16881;DHT22;8557;52.068;5.198;2023-03-01T05:10:44;-0.80;99.90
16881;DHT22;8557;52.068;5.198;2023-03-01T05:13:12;-0.80;99.90
16881;DHT22;8557;52.068;5.198;2023-03-01T05:15:41;-0.80;99.90
16881;DHT22;8557;52.068;5.198;2023-03-01T05:18:08;-0.80;99.90
16881;DHT22;8557;52.068;5.198;2023-03-01T05:20:37;-0.80;99.90
16881;DHT22;8557;52.068;5.198;2023-03-01T05:23:04;-0.90;99.90
16881;DHT22;8557;52.068;5.198;2023-03-01T05:25:33;-0.90;99.90
16881;DHT22;8557;52.068;5.198;2023-03-01T05:28:00;-0.90;99.90
16881;DHT22;8557;52.068;5.198;2023-03-01T05:30:30;-1.00;99.90
16881;DHT22;8557;52.068;5.198;2023-03-01T05:32:59;-1.00;99.90
16881;DHT22;8557;52.068;5.198;2023-03-01T05:35:27;-1.00;99.90
16881;DHT22;8557;52.068;5.198;2023-03-01T05:37:55;-1.00;99.90
16881;DHT22;8557;52.068;5.198;2023-03-01T05:40:23;-0.90;99.90
16881;DHT22;8557;52.068;5.198;2023-03-01T05:42:53;-1.00;99.90
16881;DHT22;8557;52.068;5.198;2023-03-01T05:45:21;-1.00;99.90
16881;DHT22;8557;52.068;5.198;2023-03-01T05:47:49;-1.10;99.90
16881;DHT22;8557;52.068;5.198;2023-03-01T05:50:20;-1.10;99.90
16881;DHT22;8557;52.068;5.198;2023-03-01T05:52:49;-1.10;99.90
16881;DHT22;8557;52.068;5.198;2023-03-01T05:55:17;-1.10;99.90
16881;DHT22;8557;52.068;5.198;2023-03-01T05:57:44;-1.10;99.90
16881;DHT22;8557;52.068;5.198;2023-03-01T06:00:13;-1.10;99.90
16881;DHT22;8557;52.068;5.198;2023-03-01T06:02:41;-1.10;99.90
16881;DHT22;8557;52.068;5.198;2023-03-01T06:05:09;-1.10;99.90
16881;DHT22;8557;52.068;5.198;2023-03-01T06:07:38;-1.10;99.90
16881;DHT22;8557;52.068;5.198;2023-03-01T06:10:08;-1.10;99.90
16881;DHT22;8557;52.068;5.198;2023-03-01T06:12:36;-1.10;99.90
16881;DHT22;8557;52.068;5.198;2023-03-01T06:15:05;-1.10;99.90
16881;DHT22;8557;52.068;5.198;2023-03-01T06:17:34;-1.20;99.90
16881;DHT22;8557;52.068;5.198;2023-03-01T06:20:03;-1.10;99.90
16881;DHT22;8557;52.068;5.198;2023-03-01T06:22:30;-1.10;99.90
16881;DHT22;8557;52.068;5.198;2023-03-01T06:24:58;-1.10;99.90
16881;DHT22;8557;52.068;5.198;2023-03-01T06:27:25;-1.10;99.90
16881;DHT22;8557;52.068;5.198;2023-03-01T06:29:52;-1.10;99.90
16881;DHT22;8557;52.068;5.198;2023-03-01T06:32:19;-1.20;99.90
16881;DHT22;8557;52.068;5.198;2023-03-01T06:34:46;-1.20;99.90
16881;DHT22;8557;52.068;5.198;2023-03-01T06:37:13;-1.20;99.90
16881;DHT22;8557;52.068;5.198;2023-03-01T06:39:40;-1.10;99.90
16881;DHT22;8557;52.068;5.198;2023-03-01T06:42:08;-1.10;99.90
16881;DHT22;8557;52.068;5.198;2023-03-01T06:44:36;-1.10;99.90
16881;DHT22;8557;52.068;5.198;2023-03-01T06:47:04;-1.10;99.90
16881;DHT22;8557;52.068;5.198;2023-03-01T06:49:31;-1.00;99.90
16881;DHT22;8557;52.068;5.198;2023-03-01T06:51:58;-1.00;99.90
16881;DHT22;8557;52.068;5.198;2023-03-01T06:54:25;-1.00;99.90
16881;DHT22;8557;52.068;5.198;2023-03-01T06:56:52;-1.00;99.90
16881;DHT22;8557;52.068;5.198;2023-03-01T06:59:20;-1.00;99.90
16881;DHT22;8557;52.068;5.198;2023-03-01T07:01:47;-0.90;99.90
16881;DHT22;8557;52.068;5.198;2023-03-01T07:04:14;-0.80;99.90
16881;DHT22;8557;52.068;5.198;2023-03-01T07:06:41;-0.80;99.90
16881;DHT22;8557;52.068;5.198;2023-03-01T07:09:07;-0.80;99.90
16881;DHT22;8557;52.068;5.198;2023-03-01T07:11:34;-0.70;99.90
16881;DHT22;8557;52.068;5.198;2023-03-01T07:14:01;-0.60;99.90
16881;DHT22;8557;52.068;5.198;2023-03-01T07:16:30;-0.60;99.90
16881;DHT22;8557;52.068;5.198;2023-03-01T07:18:56;-0.60;99.90
16881;DHT22;8557;52.068;5.198;2023-03-01T07:21:23;-0.60;99.90
16881;DHT22;8557;52.068;5.198;2023-03-01T07:23:50;-0.50;99.90
16881;DHT22;8557;52.068;5.198;2023-03-01T07:26:17;-0.40;99.90
16881;DHT22;8557;52.068;5.198;2023-03-01T07:28:44;-0.30;99.90
16881;DHT22;8557;52.068;5.198;2023-03-01T07:31:10;-0.20;99.90
16881;DHT22;8557;52.068;5.198;2023-03-01T07:33:38;-0.20;99.90
16881;DHT22;8557;52.068;5.198;2023-03-01T07:36:06;-0.10;99.90
16881;DHT22;8557;52.068;5.198;2023-03-01T07:38:33;-0.10;99.90
16881;DHT22;8557;52.068;5.198;2023-03-01T07:41:01;0.00;99.90
16881;DHT22;8557;52.068;5.198;2023-03-01T07:43:29;0.10;99.90
16881;DHT22;8557;52.068;5.198;2023-03-01T07:45:58;0.30;99.90
16881;DHT22;8557;52.068;5.198;2023-03-01T07:48:26;0.40;99.90
16881;DHT22;8557;52.068;5.198;2023-03-01T07:50:54;0.50;99.90
16881;DHT22;8557;52.068;5.198;2023-03-01T07:53:21;0.50;99.90
16881;DHT22;8557;52.068;5.198;2023-03-01T07:55:48;0.50;99.90
16881;DHT22;8557;52.068;5.198;2023-03-01T07:58:14;0.60;99.90
16881;DHT22;8557;52.068;5.198;2023-03-01T08:00:41;0.70;99.90
16881;DHT22;8557;52.068;5.198;2023-03-01T08:03:08;0.80;99.90
16881;DHT22;8557;52.068;5.198;2023-03-01T08:05:35;0.80;99.90
16881;DHT22;8557;52.068;5.198;2023-03-01T08:08:04;0.90;99.90
16881;DHT22;8557;52.068;5.198;2023-03-01T08:10:31;0.90;99.90
16881;DHT22;8557;52.068;5.198;2023-03-01T08:12:58;1.00;99.90
16881;DHT22;8557;52.068;5.198;2023-03-01T08:15:25;1.10;99.90
16881;DHT22;8557;52.068;5.198;2023-03-01T08:17:51;1.20;99.90
16881;DHT22;8557;52.068;5.198;2023-03-01T08:20:18;1.30;99.90
16881;DHT22;8557;52.068;5.198;2023-03-01T08:22:45;1.40;99.90
16881;DHT22;8557;52.068;5.198;2023-03-01T08:25:13;1.50;99.90
16881;DHT22;8557;52.068;5.198;2023-03-01T08:27:40;1.60;99.90
16881;DHT22;8557;52.068;5.198;2023-03-01T08:30:08;1.70;99.90
16881;DHT22;8557;52.068;5.198;2023-03-01T08:32:36;1.80;99.90
16881;DHT22;8557;52.068;5.198;2023-03-01T08:35:04;1.90;99.90
16881;DHT22;8557;52.068;5.198;2023-03-01T08:37:31;1.90;99.90
16881;DHT22;8557;52.068;5.198;2023-03-01T08:39:58;2.10;99.90
16881;DHT22;8557;52.068;5.198;2023-03-01T08:42:27;2.20;99.90
16881;DHT22;8557;52.068;5.198;2023-03-01T08:44:53;2.40;99.90
16881;DHT22;8557;52.068;5.198;2023-03-01T08:47:20;2.50;99.90
16881;DHT22;8557;52.068;5.198;2023-03-01T08:49:48;2.60;99.90
16881;DHT22;8557;52.068;5.198;2023-03-01T08:52:15;2.70;99.90
16881;DHT22;8557;52.068;5.198;2023-03-01T08:54:42;2.80;99.90
16881;DHT22;8557;52.068;5.198;2023-03-01T08:57:09;2.90;99.90
16881;DHT22;8557;52.068;5.198;2023-03-01T08:59:37;2.90;99.90
16881;DHT22;8557;52.068;5.198;2023-03-01T09:02:04;3.10;99.90
16881;DHT22;8557;52.068;5.198;2023-03-01T09:04:31;3.20;99.90
16881;DHT22;8557;52.068;5.198;2023-03-01T09:06:58;3.20;99.90
16881;DHT22;8557;52.068;5.198;2023-03-01T09:09:25;3.30;99.90
16881;DHT22;8557;52.068;5.198;2023-03-01T09:11:52;3.40;99.90
16881;DHT22;8557;52.068;5.198;2023-03-01T09:14:19;3.50;99.90
16881;DHT22;8557;52.068;5.198;2023-03-01T09:16:47;3.70;99.90
16881;DHT22;8557;52.068;5.198;2023-03-01T09:19:14;3.70;99.90
16881;DHT22;8557;52.068;5.198;2023-03-01T09:21:43;3.80;99.90
16881;DHT22;8557;52.068;5.198;2023-03-01T09:24:19;3.90;99.90
16881;DHT22;8557;52.068;5.198;2023-03-01T09:26:46;4.00;99.90
16881;DHT22;8557;52.068;5.198;2023-03-01T09:29:14;4.10;99.90
16881;DHT22;8557;52.068;5.198;2023-03-01T09:31:41;4.20;99.90
16881;DHT22;8557;52.068;5.198;2023-03-01T09:34:10;4.30;99.90
16881;DHT22;8557;52.068;5.198;2023-03-01T09:36:36;4.50;90.00
16881;DHT22;8557;52.068;5.198;2023-03-01T09:39:04;4.60;88.50
16881;DHT22;8557;52.068;5.198;2023-03-01T09:41:54;4.80;32.40
16881;DHT22;8557;52.068;5.198;2023-03-01T09:44:31;4.80;1.00
16881;DHT22;8557;52.068;5.198;2023-03-01T09:46:59;5.00;1.00
16881;DHT22;8557;52.068;5.198;2023-03-01T09:49:29;5.00;1.00
16881;DHT22;8557;52.068;5.198;2023-03-01T09:52:00;5.00;1.00
16881;DHT22;8557;52.068;5.198;2023-03-01T09:54:27;5.00;1.00
16881;DHT22;8557;52.068;5.198;2023-03-01T09:57:11;5.10;1.00
16881;DHT22;8557;52.068;5.198;2023-03-01T09:59:52;5.20;1.00
16881;DHT22;8557;52.068;5.198;2023-03-01T10:02:27;5.20;1.00
16881;DHT22;8557;52.068;5.198;2023-03-01T10:05:09;5.30;1.00
16881;DHT22;8557;52.068;5.198;2023-03-01T10:07:44;5.30;1.00
16881;DHT22;8557;52.068;5.198;2023-03-01T10:10:22;5.40;1.00
16881;DHT22;8557;52.068;5.198;2023-03-01T10:12:52;5.50;1.00
16881;DHT22;8557;52.068;5.198;2023-03-01T10:15:24;5.70;1.00
16881;DHT22;8557;52.068;5.198;2023-03-01T10:17:55;5.80;1.00
16881;DHT22;8557;52.068;5.198;2023-03-01T10:20:28;5.80;1.00
16881;DHT22;8557;52.068;5.198;2023-03-01T10:22:56;5.90;1.00
16881;DHT22;8557;52.068;5.198;2023-03-01T10:25:36;6.00;1.00
16881;DHT22;8557;52.068;5.198;2023-03-01T10:28:16;6.10;1.00
16881;DHT22;8557;52.068;5.198;2023-03-01T10:30:44;6.20;1.00
16881;DHT22;8557;52.068;5.198;2023-03-01T10:33:16;6.10;43.00
16881;DHT22;8557;52.068;5.198;2023-03-01T10:35:45;6.30;1.00
16881;DHT22;8557;52.068;5.198;2023-03-01T10:38:13;6.30;11.00
16881;DHT22;8557;52.068;5.198;2023-03-01T10:40:50;6.40;99.90
16881;DHT22;8557;52.068;5.198;2023-03-01T10:43:18;6.50;99.90
16881;DHT22;8557;52.068;5.198;2023-03-01T10:45:45;6.50;90.10
16881;DHT22;8557;52.068;5.198;2023-03-01T10:48:14;6.50;20.30
16881;DHT22;8557;52.068;5.198;2023-03-01T10:50:42;6.70;95.70
16881;DHT22;8557;52.068;5.198;2023-03-01T10:53:25;6.80;99.90
16881;DHT22;8557;52.068;5.198;2023-03-01T10:55:59;7.00;53.80
16881;DHT22;8557;52.068;5.198;2023-03-01T10:58:27;7.10;99.90
16881;DHT22;8557;52.068;5.198;2023-03-01T11:00:56;7.10;99.90
16881;DHT22;8557;52.068;5.198;2023-03-01T11:03:24;7.10;99.90
16881;DHT22;8557;52.068;5.198;2023-03-01T11:06:01;7.30;99.90
16881;DHT22;8557;52.068;5.198;2023-03-01T11:08:35;7.20;99.90
16881;DHT22;8557;52.068;5.198;2023-03-01T11:11:18;7.10;99.90
16881;DHT22;8557;52.068;5.198;2023-03-01T11:13:58;7.20;99.90
16881;DHT22;8557;52.068;5.198;2023-03-01T11:16:28;7.20;99.90
16881;DHT22;8557;52.068;5.198;2023-03-01T11:18:57;7.20;99.90
16881;DHT22;8557;52.068;5.198;2023-03-01T11:21:25;7.30;99.90
16881;DHT22;8557;52.068;5.198;2023-03-01T11:23:56;7.40;1.00
16881;DHT22;8557;52.068;5.198;2023-03-01T11:26:24;7.60;1.00
16881;DHT22;8557;52.068;5.198;2023-03-01T11:28:55;7.70;1.00
16881;DHT22;8557;52.068;5.198;2023-03-01T11:31:24;7.70;1.00
16881;DHT22;8557;52.068;5.198;2023-03-01T11:33:55;7.90;1.00
16881;DHT22;8557;52.068;5.198;2023-03-01T11:36:28;8.00;1.00
16881;DHT22;8557;52.068;5.198;2023-03-01T11:39:20;8.00;1.00
16881;DHT22;8557;52.068;5.198;2023-03-01T11:42:00;8.00;1.00
16881;DHT22;8557;52.068;5.198;2023-03-01T11:44:30;8.00;1.00
16881;DHT22;8557;52.068;5.198;2023-03-01T11:47:21;8.20;1.00
16881;DHT22;8557;52.068;5.198;2023-03-01T11:50:12;8.30;1.00
16881;DHT22;8557;52.068;5.198;2023-03-01T11:52:48;8.40;1.00
16881;DHT22;8557;52.068;5.198;2023-03-01T11:55:43;8.40;1.00
16881;DHT22;8557;52.068;5.198;2023-03-01T11:58:44;8.50;33.30
16881;DHT22;8557;52.068;5.198;2023-03-01T12:01:24;8.60;1.00
16881;DHT22;8557;52.068;5.198;2023-03-01T12:04:06;8.90;1.00
16881;DHT22;8557;52.068;5.198;2023-03-01T12:06:46;8.90;1.00
16881;DHT22;8557;52.068;5.198;2023-03-01T12:09:35;9.10;1.00
16881;DHT22;8557;52.068;5.198;2023-03-01T12:12:25;9.20;72.60
16881;DHT22;8557;52.068;5.198;2023-03-01T12:15:26;9.20;11.10
16881;DHT22;8557;52.068;5.198;2023-03-01T12:18:24;9.40;80.20
16881;DHT22;8557;52.068;5.198;2023-03-01T12:21:05;9.50;58.10
16881;DHT22;8557;52.068;5.198;2023-03-01T12:23:51;9.70;66.10
16881;DHT22;8557;52.068;5.198;2023-03-01T12:26:26;9.80;99.90
16881;DHT22;8557;52.068;5.198;2023-03-01T12:29:14;10.00;76.40
16881;DHT22;8557;52.068;5.198;2023-03-01T12:32:04;10.00;99.90
16881;DHT22;8557;52.068;5.198;2023-03-01T12:34:46;10.20;99.90
16881;DHT22;8557;52.068;5.198;2023-03-01T12:37:25;10.30;21.00
16881;DHT22;8557;52.068;5.198;2023-03-01T12:42:48;10.60;1.00
16881;DHT22;8557;52.068;5.198;2023-03-01T12:45:40;10.70;63.50
16881;DHT22;8557;52.068;5.198;2023-03-01T12:48:27;10.70;11.30
16881;DHT22;8557;52.068;5.198;2023-03-01T12:51:01;10.80;1.00
16881;DHT22;8557;52.068;5.198;2023-03-01T12:53:30;11.00;1.00
16881;DHT22;8557;52.068;5.198;2023-03-01T12:56:00;11.20;1.00
16881;DHT22;8557;52.068;5.198;2023-03-01T12:58:32;11.40;39.80
16881;DHT22;8557;52.068;5.198;2023-03-01T13:01:14;11.90;1.00
16881;DHT22;8557;52.068;5.198;2023-03-01T13:03:59;12.80;1.00
16881;DHT22;8557;52.068;5.198;2023-03-01T13:06:34;14.90;15.00
16881;DHT22;8557;52.068;5.198;2023-03-01T13:09:10;18.00;99.90
16881;DHT22;8557;52.068;5.198;2023-03-01T13:11:41;20.50;99.90
16881;DHT22;8557;52.068;5.198;2023-03-01T13:17:32;24.70;99.90
16881;DHT22;8557;52.068;5.198;2023-03-01T13:19:59;25.60;99.90
16881;DHT22;8557;52.068;5.198;2023-03-01T13:22:29;26.40;99.90
16881;DHT22;8557;52.068;5.198;2023-03-01T13:25:10;26.80;99.90
16881;DHT22;8557;52.068;5.198;2023-03-01T13:27:38;26.60;99.90
16881;DHT22;8557;52.068;5.198;2023-03-01T13:30:41;27.00;99.90
16881;DHT22;8557;52.068;5.198;2023-03-01T13:33:39;27.20;99.90
16881;DHT22;8557;52.068;5.198;2023-03-01T13:36:07;27.00;99.90
16881;DHT22;8557;52.068;5.198;2023-03-01T13:38:38;27.00;99.90
16881;DHT22;8557;52.068;5.198;2023-03-01T13:41:07;27.30;99.90
16881;DHT22;8557;52.068;5.198;2023-03-01T13:43:35;27.90;99.90
16881;DHT22;8557;52.068;5.198;2023-03-01T13:46:09;28.10;99.90
16881;DHT22;8557;52.068;5.198;2023-03-01T13:48:38;27.60;99.90
16881;DHT22;8557;52.068;5.198;2023-03-01T13:53:42;28.50;99.90
16881;DHT22;8557;52.068;5.198;2023-03-01T13:56:13;28.20;99.90
16881;DHT22;8557;52.068;5.198;2023-03-01T13:58:49;28.40;99.90
16881;DHT22;8557;52.068;5.198;2023-03-01T14:01:24;28.50;99.90
16881;DHT22;8557;52.068;5.198;2023-03-01T14:03:51;28.80;99.90
16881;DHT22;8557;52.068;5.198;2023-03-01T14:06:20;28.70;99.90
16881;DHT22;8557;52.068;5.198;2023-03-01T14:08:51;28.80;99.90
16881;DHT22;8557;52.068;5.198;2023-03-01T14:11:35;29.00;99.90
16881;DHT22;8557;52.068;5.198;2023-03-01T14:17:16;28.70;99.90
16881;DHT22;8557;52.068;5.198;2023-03-01T14:19:47;28.50;99.90
16881;DHT22;8557;52.068;5.198;2023-03-01T14:22:23;28.00;99.90
16881;DHT22;8557;52.068;5.198;2023-03-01T14:24:55;27.70;99.90
16881;DHT22;8557;52.068;5.198;2023-03-01T14:27:25;28.00;99.90
16881;DHT22;8557;52.068;5.198;2023-03-01T14:29:57;27.90;99.90
16881;DHT22;8557;52.068;5.198;2023-03-01T14:32:27;27.90;99.90
16881;DHT22;8557;52.068;5.198;2023-03-01T14:34:55;28.00;99.90
16881;DHT22;8557;52.068;5.198;2023-03-01T14:37:25;28.00;99.90
16881;DHT22;8557;52.068;5.198;2023-03-01T14:39:53;28.20;99.90
16881;DHT22;8557;52.068;5.198;2023-03-01T14:42:21;27.80;99.90
16881;DHT22;8557;52.068;5.198;2023-03-01T14:44:51;27.70;99.90
16881;DHT22;8557;52.068;5.198;2023-03-01T14:47:27;27.80;99.90
16881;DHT22;8557;52.068;5.198;2023-03-01T14:49:58;27.20;99.90
16881;DHT22;8557;52.068;5.198;2023-03-01T14:52:31;27.10;99.90
16881;DHT22;8557;52.068;5.198;2023-03-01T14:55:00;26.80;99.90
16881;DHT22;8557;52.068;5.198;2023-03-01T14:57:28;26.30;99.90
16881;DHT22;8557;52.068;5.198;2023-03-01T14:59:57;25.80;1.00
16881;DHT22;8557;52.068;5.198;2023-03-01T15:02:29;24.40;99.90
16881;DHT22;8557;52.068;5.198;2023-03-01T15:04:58;22.90;99.90
16881;DHT22;8557;52.068;5.198;2023-03-01T15:07:29;22.40;99.90
16881;DHT22;8557;52.068;5.198;2023-03-01T15:09:57;21.80;99.90
16881;DHT22;8557;52.068;5.198;2023-03-01T15:12:34;21.30;99.90
16881;DHT22;8557;52.068;5.198;2023-03-01T15:15:19;20.70;99.90
16881;DHT22;8557;52.068;5.198;2023-03-01T15:17:52;20.80;99.90
16881;DHT22;8557;52.068;5.198;2023-03-01T15:20:23;20.50;99.90
16881;DHT22;8557;52.068;5.198;2023-03-01T15:22:51;19.10;99.90
16881;DHT22;8557;52.068;5.198;2023-03-01T15:25:20;19.20;99.90
16881;DHT22;8557;52.068;5.198;2023-03-01T15:27:48;19.00;99.90
16881;DHT22;8557;52.068;5.198;2023-03-01T15:30:19;18.90;99.90
16881;DHT22;8557;52.068;5.198;2023-03-01T15:32:47;18.10;99.90
16881;DHT22;8557;52.068;5.198;2023-03-01T15:35:40;17.40;93.90
16881;DHT22;8557;52.068;5.198;2023-03-01T15:38:29;17.80;99.90
16881;DHT22;8557;52.068;5.198;2023-03-01T15:40:58;17.80;99.90
16881;DHT22;8557;52.068;5.198;2023-03-01T15:43:41;17.60;20.40
16881;DHT22;8557;52.068;5.198;2023-03-01T15:46:30;17.20;1.00
16881;DHT22;8557;52.068;5.198;2023-03-01T15:49:00;16.90;1.00
16881;DHT22;8557;52.068;5.198;2023-03-01T15:51:31;16.60;1.00
16881;DHT22;8557;52.068;5.198;2023-03-01T15:54:01;15.40;99.90
16881;DHT22;8557;52.068;5.198;2023-03-01T15:56:28;14.10;99.90
16881;DHT22;8557;52.068;5.198;2023-03-01T15:59:00;13.30;99.90
16881;DHT22;8557;52.068;5.198;2023-03-01T16:01:27;12.40;99.90
16881;DHT22;8557;52.068;5.198;2023-03-01T16:03:54;11.90;99.90
16881;DHT22;8557;52.068;5.198;2023-03-01T16:06:24;11.30;99.90
16881;DHT22;8557;52.068;5.198;2023-03-01T16:08:52;11.10;1.00
16881;DHT22;8557;52.068;5.198;2023-03-01T16:11:20;10.80;1.00
16881;DHT22;8557;52.068;5.198;2023-03-01T16:13:47;10.70;1.00
16881;DHT22;8557;52.068;5.198;2023-03-01T16:16:15;10.40;1.00
16881;DHT22;8557;52.068;5.198;2023-03-01T16:18:44;10.00;1.00
16881;DHT22;8557;52.068;5.198;2023-03-01T16:21:13;9.80;30.30
16881;DHT22;8557;52.068;5.198;2023-03-01T16:23:41;9.60;99.90
16881;DHT22;8557;52.068;5.198;2023-03-01T16:26:09;9.50;1.00
16881;DHT22;8557;52.068;5.198;2023-03-01T16:28:36;9.20;1.00
16881;DHT22;8557;52.068;5.198;2023-03-01T16:31:03;9.10;99.90
16881;DHT22;8557;52.068;5.198;2023-03-01T16:33:31;9.00;99.90